Terminal Aerodrome Forecast
Issued by NWS

Home | Current Version | Previous Version | Text Only | Print | Product List | Glossary On
Versions: 1 2 3 4 5 6 7 8 9 10 11 12 13 14 15 16 17 18
242
FTPA31 PHFO 081730
TAFHJR
TAF
PHJR 081730Z 0818/0918 02005KT P6SM FEW050
     FM082100 12008KT P6SM FEW030 SCT050
     FM090500 VRB03KT P6SM FEW050=

USA.gov is the U.S. government's official web portal to all federal, state and local government web resources and services.